sensor_id;sensor_type;location;lat;lon;timestamp;pressure;altitude;pressure_sealevel;temperature;humidity
33913;BME280;20200;52.084;5.224;2022-08-01T00:00:22;101573.0;;;19.95;89.66
33913;BME280;20200;52.084;5.224;2022-08-01T00:02:09;101578.0;;;19.84;90.36
33913;BME280;20200;52.084;5.224;2022-08-01T00:05:45;101576.0;;;19.96;89.92
33913;BME280;20200;52.084;5.224;2022-08-01T00:07:31;101573.0;;;19.89;91.17
33913;BME280;20200;52.084;5.224;2022-08-01T00:09:17;101570.0;;;19.86;91.21
33913;BME280;20200;52.084;5.224;2022-08-01T00:11:04;101576.0;;;19.86;91.1
33913;BME280;20200;52.084;5.224;2022-08-01T00:12:51;101571.0;;;19.91;90.91
33913;BME280;20200;52.084;5.224;2022-08-01T00:14:37;101567.0;;;19.8;92.38
33913;BME280;20200;52.084;5.224;2022-08-01T00:18:11;101573.0;;;19.78;92.11
33913;BME280;20200;52.084;5.224;2022-08-01T00:19:57;101573.0;;;19.71;92.66
33913;BME280;20200;52.084;5.224;2022-08-01T00:21:44;101570.0;;;19.79;92.45
33913;BME280;20200;52.084;5.224;2022-08-01T00:23:31;101573.0;;;19.81;92.26
33913;BME280;20200;52.084;5.224;2022-08-01T00:25:18;101575.0;;;19.7;92.38
33913;BME280;20200;52.084;5.224;2022-08-01T00:28:51;101578.0;;;19.78;92.56
33913;BME280;20200;52.084;5.224;2022-08-01T00:30:37;101582.0;;;19.78;92.52
33913;BME280;20200;52.084;5.224;2022-08-01T00:32:23;101580.0;;;19.77;92.53
33913;BME280;20200;52.084;5.224;2022-08-01T00:34:10;101580.0;;;19.84;92.31
33913;BME280;20200;52.084;5.224;2022-08-01T00:35:57;101577.0;;;20.0;91.58
33913;BME280;20200;52.084;5.224;2022-08-01T00:37:44;101577.0;;;20.12;91.19
33913;BME280;20200;52.084;5.224;2022-08-01T00:41:19;101577.0;;;19.95;91.98
33913;BME280;20200;52.084;5.224;2022-08-01T00:43:05;101577.0;;;19.79;93.35
33913;BME280;20200;52.084;5.224;2022-08-01T00:44:51;101576.0;;;19.87;92.26
33913;BME280;20200;52.084;5.224;2022-08-01T00:46:37;101580.0;;;19.77;93.53
33913;BME280;20200;52.084;5.224;2022-08-01T00:48:23;101575.0;;;19.77;92.94
33913;BME280;20200;52.084;5.224;2022-08-01T00:50:10;101580.0;;;19.73;93.89
33913;BME280;20200;52.084;5.224;2022-08-01T00:53:45;101580.0;;;19.59;94.86
33913;BME280;20200;52.084;5.224;2022-08-01T00:55:31;101581.0;;;19.61;94.64
33913;BME280;20200;52.084;5.224;2022-08-01T00:57:18;101586.0;;;19.78;93.65
33913;BME280;20200;52.084;5.224;2022-08-01T00:59:05;101584.0;;;19.75;93.77
33913;BME280;20200;52.084;5.224;2022-08-01T01:00:53;101586.0;;;19.59;94.56
33913;BME280;20200;52.084;5.224;2022-08-01T01:04:26;101584.0;;;19.59;95.0
33913;BME280;20200;52.084;5.224;2022-08-01T01:06:23;101589.0;;;19.52;95.02
33913;BME280;20200;52.084;5.224;2022-08-01T01:08:18;101585.0;;;19.56;94.58
33913;BME280;20200;52.084;5.224;2022-08-01T01:10:12;101586.0;;;19.63;94.46
33913;BME280;20200;52.084;5.224;2022-08-01T01:12:10;101583.0;;;19.64;94.23
33913;BME280;20200;52.084;5.224;2022-08-01T01:14:02;101578.0;;;19.52;95.4
33913;BME280;20200;52.084;5.224;2022-08-01T01:15:57;101578.0;;;19.59;95.24
33913;BME280;20200;52.084;5.224;2022-08-01T01:17:48;101587.0;;;19.48;96.15
33913;BME280;20200;52.084;5.224;2022-08-01T01:19:46;101580.0;;;19.45;96.01
33913;BME280;20200;52.084;5.224;2022-08-01T01:21:42;101577.0;;;19.5;95.74
33913;BME280;20200;52.084;5.224;2022-08-01T01:25:43;101577.0;;;19.43;96.2
33913;BME280;20200;52.084;5.224;2022-08-01T01:27:45;101573.0;;;19.39;96.74
33913;BME280;20200;52.084;5.224;2022-08-01T01:29:40;101570.0;;;19.52;95.79
33913;BME280;20200;52.084;5.224;2022-08-01T01:31:31;101567.0;;;19.5;95.91
33913;BME280;20200;52.084;5.224;2022-08-01T01:33:21;101569.0;;;19.48;95.85
33913;BME280;20200;52.084;5.224;2022-08-01T01:35:14;101566.0;;;19.53;95.72
33913;BME280;20200;52.084;5.224;2022-08-01T01:37:11;101580.0;;;19.43;96.36
33913;BME280;20200;52.084;5.224;2022-08-01T01:39:05;101577.0;;;19.43;96.4
33913;BME280;20200;52.084;5.224;2022-08-01T01:40:55;101580.0;;;19.46;96.07
33913;BME280;20200;52.084;5.224;2022-08-01T01:42:42;101576.0;;;19.41;96.27
33913;BME280;20200;52.084;5.224;2022-08-01T01:46:21;101569.0;;;19.47;96.21
33913;BME280;20200;52.084;5.224;2022-08-01T01:48:10;101575.0;;;19.43;96.13
33913;BME280;20200;52.084;5.224;2022-08-01T01:50:03;101575.0;;;19.45;96.17
33913;BME280;20200;52.084;5.224;2022-08-01T01:51:51;101578.0;;;19.52;96.16
33913;BME280;20200;52.084;5.224;2022-08-01T01:53:39;101580.0;;;19.59;95.59
33913;BME280;20200;52.084;5.224;2022-08-01T01:55:28;101584.0;;;19.55;95.73
33913;BME280;20200;52.084;5.224;2022-08-01T01:57:16;101585.0;;;19.5;95.5
33913;BME280;20200;52.084;5.224;2022-08-01T02:00:52;101581.0;;;19.63;95.14
33913;BME280;20200;52.084;5.224;2022-08-01T02:02:41;101580.0;;;19.62;94.8
33913;BME280;20200;52.084;5.224;2022-08-01T02:04:30;101587.0;;;19.71;94.49
33913;BME280;20200;52.084;5.224;2022-08-01T02:06:18;101583.0;;;19.77;94.15
33913;BME280;20200;52.084;5.224;2022-08-01T02:08:06;101577.0;;;19.75;94.13
33913;BME280;20200;52.084;5.224;2022-08-01T02:09:54;101580.0;;;19.68;94.17
33913;BME280;20200;52.084;5.224;2022-08-01T02:13:30;101581.0;;;19.75;94.07
33913;BME280;20200;52.084;5.224;2022-08-01T02:15:18;101584.0;;;19.71;94.54
33913;BME280;20200;52.084;5.224;2022-08-01T02:17:06;101581.0;;;19.75;94.29
33913;BME280;20200;52.084;5.224;2022-08-01T02:18:57;101585.0;;;19.56;94.78
33913;BME280;20200;52.084;5.224;2022-08-01T02:20:44;101586.0;;;19.68;94.7
33913;BME280;20200;52.084;5.224;2022-08-01T02:22:35;101588.0;;;19.59;95.17
33913;BME280;20200;52.084;5.224;2022-08-01T02:24:32;101580.0;;;19.66;95.07
33913;BME280;20200;52.084;5.224;2022-08-01T02:26:24;101585.0;;;19.61;95.26
33913;BME280;20200;52.084;5.224;2022-08-01T02:30:07;101584.0;;;19.75;94.79
33913;BME280;20200;52.084;5.224;2022-08-01T02:31:55;101583.0;;;19.77;94.61
33913;BME280;20200;52.084;5.224;2022-08-01T02:33:45;101577.0;;;19.68;95.1
33913;BME280;20200;52.084;5.224;2022-08-01T02:35:37;101581.0;;;19.71;95.2
33913;BME280;20200;52.084;5.224;2022-08-01T02:37:28;101586.0;;;19.66;95.41
33913;BME280;20200;52.084;5.224;2022-08-01T02:39:21;101593.0;;;19.59;95.97
33913;BME280;20200;52.084;5.224;2022-08-01T02:41:11;101591.0;;;19.56;96.37
33913;BME280;20200;52.084;5.224;2022-08-01T02:44:49;101586.0;;;19.62;95.95
33913;BME280;20200;52.084;5.224;2022-08-01T02:46:41;101585.0;;;19.63;95.88
33913;BME280;20200;52.084;5.224;2022-08-01T02:48:30;101588.0;;;19.41;97.4
33913;BME280;20200;52.084;5.224;2022-08-01T02:50:20;101591.0;;;19.41;97.22
33913;BME280;20200;52.084;5.224;2022-08-01T02:52:12;101586.0;;;19.41;97.25
33913;BME280;20200;52.084;5.224;2022-08-01T02:54:02;101589.0;;;19.43;96.6
33913;BME280;20200;52.084;5.224;2022-08-01T02:55:52;101584.0;;;19.56;96.29
33913;BME280;20200;52.084;5.224;2022-08-01T02:59:29;101582.0;;;19.55;96.28
33913;BME280;20200;52.084;5.224;2022-08-01T03:01:20;101580.0;;;19.5;96.3
33913;BME280;20200;52.084;5.224;2022-08-01T03:03:09;101576.0;;;19.47;95.89
33913;BME280;20200;52.084;5.224;2022-08-01T03:04:58;101578.0;;;19.47;95.82
33913;BME280;20200;52.084;5.224;2022-08-01T03:06:47;101572.0;;;19.57;95.12
33913;BME280;20200;52.084;5.224;2022-08-01T03:08:34;101576.0;;;19.52;95.54
33913;BME280;20200;52.084;5.224;2022-08-01T03:10:24;101576.0;;;19.46;95.91
33913;BME280;20200;52.084;5.224;2022-08-01T03:14:13;101572.0;;;19.45;95.92
33913;BME280;20200;52.084;5.224;2022-08-01T03:16:02;101577.0;;;19.52;95.36
33913;BME280;20200;52.084;5.224;2022-08-01T03:17:52;101581.0;;;19.53;95.16
33913;BME280;20200;52.084;5.224;2022-08-01T03:19:41;101584.0;;;19.41;95.37
33913;BME280;20200;52.084;5.224;2022-08-01T03:21:31;101592.0;;;19.41;95.87
33913;BME280;20200;52.084;5.224;2022-08-01T03:23:20;101591.0;;;19.41;95.8
33913;BME280;20200;52.084;5.224;2022-08-01T03:25:09;101591.0;;;19.38;96.06
33913;BME280;20200;52.084;5.224;2022-08-01T03:28:46;101590.0;;;19.41;96.02
33913;BME280;20200;52.084;5.224;2022-08-01T03:30:35;101588.0;;;19.27;96.79
33913;BME280;20200;52.084;5.224;2022-08-01T03:32:23;101591.0;;;19.32;96.55
33913;BME280;20200;52.084;5.224;2022-08-01T03:34:11;101594.0;;;19.34;96.42
33913;BME280;20200;52.084;5.224;2022-08-01T03:36:00;101590.0;;;19.22;97.04
33913;BME280;20200;52.084;5.224;2022-08-01T03:37:50;101591.0;;;19.31;96.25
33913;BME280;20200;52.084;5.224;2022-08-01T03:39:44;101594.0;;;19.29;96.24
33913;BME280;20200;52.084;5.224;2022-08-01T03:43:31;101595.0;;;19.29;96.79
33913;BME280;20200;52.084;5.224;2022-08-01T03:45:26;101594.0;;;19.45;96.06
33913;BME280;20200;52.084;5.224;2022-08-01T03:47:15;101593.0;;;19.31;96.56
33913;BME280;20200;52.084;5.224;2022-08-01T03:49:21;101588.0;;;19.25;96.49
33913;BME280;20200;52.084;5.224;2022-08-01T03:51:08;101588.0;;;19.13;96.98
33913;BME280;20200;52.084;5.224;2022-08-01T03:52:59;101584.0;;;19.09;96.68
33913;BME280;20200;52.084;5.224;2022-08-01T03:54:47;101587.0;;;19.09;96.56
33913;BME280;20200;52.084;5.224;2022-08-01T03:56:39;101587.0;;;19.03;97.1
33913;BME280;20200;52.084;5.224;2022-08-01T03:58:28;101586.0;;;19.05;96.32
33913;BME280;20200;52.084;5.224;2022-08-01T04:02:06;101591.0;;;19.04;96.43
33913;BME280;20200;52.084;5.224;2022-08-01T04:03:53;101592.0;;;18.96;97.23
33913;BME280;20200;52.084;5.224;2022-08-01T04:05:41;101597.0;;;19.07;96.38
33913;BME280;20200;52.084;5.224;2022-08-01T04:07:28;101598.0;;;19.11;96.04
33913;BME280;20200;52.084;5.224;2022-08-01T04:09:16;101591.0;;;19.14;95.34
33913;BME280;20200;52.084;5.224;2022-08-01T04:11:04;101595.0;;;19.12;95.26
33913;BME280;20200;52.084;5.224;2022-08-01T04:14:38;101594.0;;;19.02;95.88
33913;BME280;20200;52.084;5.224;2022-08-01T04:16:24;101594.0;;;18.95;95.8
33913;BME280;20200;52.084;5.224;2022-08-01T04:18:11;101594.0;;;18.93;95.67
33913;BME280;20200;52.084;5.224;2022-08-01T04:19:57;101600.0;;;18.89;96.09
33913;BME280;20200;52.084;5.224;2022-08-01T04:21:44;101601.0;;;18.98;95.68
33913;BME280;20200;52.084;5.224;2022-08-01T04:23:32;101606.0;;;18.86;96.38
33913;BME280;20200;52.084;5.224;2022-08-01T04:27:14;101605.0;;;18.82;96.8
33913;BME280;20200;52.084;5.224;2022-08-01T04:29:10;101607.0;;;18.84;96.7
33913;BME280;20200;52.084;5.224;2022-08-01T04:31:00;101609.0;;;18.79;96.83
33913;BME280;20200;52.084;5.224;2022-08-01T04:32:47;101607.0;;;18.89;96.52
33913;BME280;20200;52.084;5.224;2022-08-01T04:34:38;101614.0;;;18.95;96.19
33913;BME280;20200;52.084;5.224;2022-08-01T04:36:27;101614.0;;;19.0;96.2
33913;BME280;20200;52.084;5.224;2022-08-01T04:38:22;101615.0;;;19.02;96.25
33913;BME280;20200;52.084;5.224;2022-08-01T04:41:58;101621.0;;;19.02;96.45
33913;BME280;20200;52.084;5.224;2022-08-01T04:43:46;101619.0;;;19.04;96.83
33913;BME280;20200;52.084;5.224;2022-08-01T04:45:34;101619.0;;;19.0;97.2
33913;BME280;20200;52.084;5.224;2022-08-01T04:47:22;101619.0;;;19.09;96.88
33913;BME280;20200;52.084;5.224;2022-08-01T04:49:10;101623.0;;;19.09;96.81
33913;BME280;20200;52.084;5.224;2022-08-01T04:50:56;101624.0;;;19.2;96.56
33913;BME280;20200;52.084;5.224;2022-08-01T04:54:30;101630.0;;;19.16;96.74
33913;BME280;20200;52.084;5.224;2022-08-01T04:56:18;101634.0;;;19.25;96.4
33913;BME280;20200;52.084;5.224;2022-08-01T04:58:07;101636.0;;;19.32;96.12
33913;BME280;20200;52.084;5.224;2022-08-01T04:59:56;101632.0;;;19.23;96.46
33913;BME280;20200;52.084;5.224;2022-08-01T05:01:48;101636.0;;;19.18;96.81
33913;BME280;20200;52.084;5.224;2022-08-01T05:03:35;101634.0;;;19.14;97.12
33913;BME280;20200;52.084;5.224;2022-08-01T05:07:08;101635.0;;;19.16;97.06
33913;BME280;20200;52.084;5.224;2022-08-01T05:08:56;101640.0;;;19.06;97.6
33913;BME280;20200;52.084;5.224;2022-08-01T05:10:42;101641.0;;;19.09;97.85
33913;BME280;20200;52.084;5.224;2022-08-01T05:12:29;101639.0;;;19.09;97.57
33913;BME280;20200;52.084;5.224;2022-08-01T05:14:15;101643.0;;;19.04;97.71
33913;BME280;20200;52.084;5.224;2022-08-01T05:16:03;101639.0;;;19.14;97.51
33913;BME280;20200;52.084;5.224;2022-08-01T05:19:38;101641.0;;;19.09;97.45
33913;BME280;20200;52.084;5.224;2022-08-01T05:21:25;101644.0;;;19.18;97.33
33913;BME280;20200;52.084;5.224;2022-08-01T05:23:12;101643.0;;;19.18;97.53
33913;BME280;20200;52.084;5.224;2022-08-01T05:24:59;101648.0;;;19.21;96.84
33913;BME280;20200;52.084;5.224;2022-08-01T05:26:45;101649.0;;;19.31;96.29
33913;BME280;20200;52.084;5.224;2022-08-01T05:28:31;101650.0;;;19.36;96.21
33913;BME280;20200;52.084;5.224;2022-08-01T05:32:04;101653.0;;;19.5;95.46
33913;BME280;20200;52.084;5.224;2022-08-01T05:33:51;101649.0;;;19.52;95.02
33913;BME280;20200;52.084;5.224;2022-08-01T05:35:37;101655.0;;;19.59;94.67
33913;BME280;20200;52.084;5.224;2022-08-01T05:37:24;101655.0;;;19.52;94.7
33913;BME280;20200;52.084;5.224;2022-08-01T05:39:10;101660.0;;;19.29;95.41
33913;BME280;20200;52.084;5.224;2022-08-01T05:40:57;101659.0;;;19.34;95.51
33913;BME280;20200;52.084;5.224;2022-08-01T05:44:30;101658.0;;;19.43;95.22
33913;BME280;20200;52.084;5.224;2022-08-01T05:46:17;101658.0;;;19.39;94.74
33913;BME280;20200;52.084;5.224;2022-08-01T05:48:04;101659.0;;;19.39;94.33
33913;BME280;20200;52.084;5.224;2022-08-01T05:49:50;101662.0;;;19.18;95.38
33913;BME280;20200;52.084;5.224;2022-08-01T05:51:36;101662.0;;;19.04;97.56
33913;BME280;20200;52.084;5.224;2022-08-01T05:55:09;101664.0;;;19.09;97.8
33913;BME280;20200;52.084;5.224;2022-08-01T05:56:59;101666.0;;;19.13;97.24
33913;BME280;20200;52.084;5.224;2022-08-01T05:58:46;101669.0;;;19.11;96.86
33913;BME280;20200;52.084;5.224;2022-08-01T06:00:33;101669.0;;;19.18;96.67
33913;BME280;20200;52.084;5.224;2022-08-01T06:02:20;101672.0;;;19.2;96.57
33913;BME280;20200;52.084;5.224;2022-08-01T06:04:06;101673.0;;;19.18;96.43
33913;BME280;20200;52.084;5.224;2022-08-01T06:07:40;101674.0;;;19.06;96.74
33913;BME280;20200;52.084;5.224;2022-08-01T06:09:26;101677.0;;;19.11;97.12
33913;BME280;20200;52.084;5.224;2022-08-01T06:11:12;101680.0;;;19.2;96.84
33913;BME280;20200;52.084;5.224;2022-08-01T06:13:03;101680.0;;;19.12;96.86
33913;BME280;20200;52.084;5.224;2022-08-01T06:14:49;101681.0;;;19.16;97.12
33913;BME280;20200;52.084;5.224;2022-08-01T06:16:35;101688.0;;;19.16;96.86
33913;BME280;20200;52.084;5.224;2022-08-01T06:20:09;101692.0;;;19.18;96.87
33913;BME280;20200;52.084;5.224;2022-08-01T06:21:56;101688.0;;;19.05;96.91
33913;BME280;20200;52.084;5.224;2022-08-01T06:23:42;101687.0;;;19.18;96.72
33913;BME280;20200;52.084;5.224;2022-08-01T06:25:29;101682.0;;;19.09;97.09
33913;BME280;20200;52.084;5.224;2022-08-01T06:27:16;101680.0;;;19.07;98.07
33913;BME280;20200;52.084;5.224;2022-08-01T06:30:49;101681.0;;;19.04;98.35
33913;BME280;20200;52.084;5.224;2022-08-01T06:32:36;101685.0;;;19.09;97.75
33913;BME280;20200;52.084;5.224;2022-08-01T06:34:23;101681.0;;;18.98;98.23
33913;BME280;20200;52.084;5.224;2022-08-01T06:36:09;101685.0;;;19.11;98.59
33913;BME280;20200;52.084;5.224;2022-08-01T06:37:56;101684.0;;;18.95;99.31
33913;BME280;20200;52.084;5.224;2022-08-01T06:39:43;101686.0;;;18.95;99.91
33913;BME280;20200;52.084;5.224;2022-08-01T06:43:15;101687.0;;;18.95;99.89
33913;BME280;20200;52.084;5.224;2022-08-01T06:45:02;101691.0;;;18.93;100.0
33913;BME280;20200;52.084;5.224;2022-08-01T06:46:49;101695.0;;;18.96;100.0
33913;BME280;20200;52.084;5.224;2022-08-01T06:48:39;101693.0;;;19.04;100.0
33913;BME280;20200;52.084;5.224;2022-08-01T06:50:25;101696.0;;;19.0;100.0
33913;BME280;20200;52.084;5.224;2022-08-01T06:52:12;101694.0;;;19.11;100.0
33913;BME280;20200;52.084;5.224;2022-08-01T06:55:44;101693.0;;;18.98;100.0
33913;BME280;20200;52.084;5.224;2022-08-01T06:57:30;101695.0;;;19.0;100.0
33913;BME280;20200;52.084;5.224;2022-08-01T06:59:17;101700.0;;;19.25;100.0
33913;BME280;20200;52.084;5.224;2022-08-01T07:01:06;101697.0;;;19.16;99.14
33913;BME280;20200;52.084;5.224;2022-08-01T07:02:55;101698.0;;;19.31;98.12
33913;BME280;20200;52.084;5.224;2022-08-01T07:04:42;101700.0;;;19.29;96.71
33913;BME280;20200;52.084;5.224;2022-08-01T07:08:15;101705.0;;;19.39;96.6
33913;BME280;20200;52.084;5.224;2022-08-01T07:10:04;101707.0;;;19.2;97.51
33913;BME280;20200;52.084;5.224;2022-08-01T07:13:39;101706.0;;;19.25;97.28
33913;BME280;20200;52.084;5.224;2022-08-01T07:15:26;101707.0;;;19.3;97.26
33913;BME280;20200;52.084;5.224;2022-08-01T07:17:13;101710.0;;;19.18;96.9
33913;BME280;20200;52.084;5.224;2022-08-01T07:20:46;101714.0;;;19.21;96.94
33913;BME280;20200;52.084;5.224;2022-08-01T07:22:32;101714.0;;;19.27;96.79
33913;BME280;20200;52.084;5.224;2022-08-01T07:24:19;101715.0;;;19.22;97.32
33913;BME280;20200;52.084;5.224;2022-08-01T07:26:06;101715.0;;;19.27;97.31
33913;BME280;20200;52.084;5.224;2022-08-01T07:27:53;101716.0;;;19.27;97.82
33913;BME280;20200;52.084;5.224;2022-08-01T07:31:25;101716.0;;;18.93;98.4
33913;BME280;20200;52.084;5.224;2022-08-01T07:33:11;101719.0;;;19.0;98.36
33913;BME280;20200;52.084;5.224;2022-08-01T07:34:58;101724.0;;;18.7;99.42
33913;BME280;20200;52.084;5.224;2022-08-01T07:36:45;101730.0;;;18.59;99.3
33913;BME280;20200;52.084;5.224;2022-08-01T07:38:32;101730.0;;;18.48;99.32
33913;BME280;20200;52.084;5.224;2022-08-01T07:40:19;101733.0;;;18.59;99.82
33913;BME280;20200;52.084;5.224;2022-08-01T07:43:53;101731.0;;;18.47;100.0
33913;BME280;20200;52.084;5.224;2022-08-01T07:45:40;101736.0;;;18.45;99.96
33913;BME280;20200;52.084;5.224;2022-08-01T07:47:27;101742.0;;;18.57;99.84
33913;BME280;20200;52.084;5.224;2022-08-01T07:49:13;101745.0;;;18.57;99.86
33913;BME280;20200;52.084;5.224;2022-08-01T07:51:00;101741.0;;;18.7;99.28
33913;BME280;20200;52.084;5.224;2022-08-01T07:52:46;101746.0;;;18.48;98.81
33913;BME280;20200;52.084;5.224;2022-08-01T07:56:20;101741.0;;;18.68;98.5
33913;BME280;20200;52.084;5.224;2022-08-01T07:58:06;101745.0;;;18.86;98.81
33913;BME280;20200;52.084;5.224;2022-08-01T07:59:53;101748.0;;;18.62;98.9
33913;BME280;20200;52.084;5.224;2022-08-01T08:01:41;101752.0;;;18.75;98.41
33913;BME280;20200;52.084;5.224;2022-08-01T08:03:28;101750.0;;;18.95;98.97
33913;BME280;20200;52.084;5.224;2022-08-01T08:07:01;101752.0;;;19.13;98.17
33913;BME280;20200;52.084;5.224;2022-08-01T08:08:48;101755.0;;;19.22;98.17
33913;BME280;20200;52.084;5.224;2022-08-01T08:10:34;101756.0;;;18.98;96.72
33913;BME280;20200;52.084;5.224;2022-08-01T08:12:20;101756.0;;;18.96;96.33
33913;BME280;20200;52.084;5.224;2022-08-01T08:14:07;101750.0;;;19.09;95.78
33913;BME280;20200;52.084;5.224;2022-08-01T08:15:53;101753.0;;;19.2;95.47
33913;BME280;20200;52.084;5.224;2022-08-01T08:19:26;101752.0;;;19.27;95.82
33913;BME280;20200;52.084;5.224;2022-08-01T08:21:12;101757.0;;;19.43;95.07
33913;BME280;20200;52.084;5.224;2022-08-01T08:22:58;101757.0;;;19.36;94.82
33913;BME280;20200;52.084;5.224;2022-08-01T08:24:45;101760.0;;;19.52;94.79
33913;BME280;20200;52.084;5.224;2022-08-01T08:26:32;101761.0;;;19.66;95.14
33913;BME280;20200;52.084;5.224;2022-08-01T08:28:19;101763.0;;;19.59;94.87
33913;BME280;20200;52.084;5.224;2022-08-01T08:31:55;101761.0;;;19.82;95.45
33913;BME280;20200;52.084;5.224;2022-08-01T08:33:42;101761.0;;;19.82;94.28
33913;BME280;20200;52.084;5.224;2022-08-01T08:35:28;101762.0;;;19.91;93.27
33913;BME280;20200;52.084;5.224;2022-08-01T08:37:17;101762.0;;;19.81;92.62
33913;BME280;20200;52.084;5.224;2022-08-01T08:39:04;101767.0;;;19.52;90.97
33913;BME280;20200;52.084;5.224;2022-08-01T08:40:52;101770.0;;;19.41;90.99
33913;BME280;20200;52.084;5.224;2022-08-01T08:44:26;101775.0;;;19.68;91.62
33913;BME280;20200;52.084;5.224;2022-08-01T08:46:13;101776.0;;;19.93;92.46
33913;BME280;20200;52.084;5.224;2022-08-01T08:48:00;101777.0;;;20.04;92.75
33913;BME280;20200;52.084;5.224;2022-08-01T08:49:49;101778.0;;;20.04;90.63
33913;BME280;20200;52.084;5.224;2022-08-01T08:51:39;101780.0;;;19.96;88.35
33913;BME280;20200;52.084;5.224;2022-08-01T08:53:26;101778.0;;;20.03;88.77
33913;BME280;20200;52.084;5.224;2022-08-01T08:57:04;101783.0;;;20.16;88.17
33913;BME280;20200;52.084;5.224;2022-08-01T08:58:51;101785.0;;;20.21;86.62
33913;BME280;20200;52.084;5.224;2022-08-01T09:00:39;101784.0;;;20.13;84.9
33913;BME280;20200;52.084;5.224;2022-08-01T09:02:25;101783.0;;;20.2;84.29
33913;BME280;20200;52.084;5.224;2022-08-01T09:04:12;101786.0;;;20.07;83.42
33913;BME280;20200;52.084;5.224;2022-08-01T09:05:59;101789.0;;;20.02;84.27
33913;BME280;20200;52.084;5.224;2022-08-01T09:09:33;101788.0;;;20.18;82.3
33913;BME280;20200;52.084;5.224;2022-08-01T09:11:19;101793.0;;;20.12;81.89
33913;BME280;20200;52.084;5.224;2022-08-01T09:13:09;101795.0;;;20.22;79.62
33913;BME280;20200;52.084;5.224;2022-08-01T09:14:57;101793.0;;;20.41;78.49
33913;BME280;20200;52.084;5.224;2022-08-01T09:16:44;101803.0;;;20.54;77.87
33913;BME280;20200;52.084;5.224;2022-08-01T09:18:33;101808.0;;;20.65;75.77
33913;BME280;20200;52.084;5.224;2022-08-01T09:22:11;101801.0;;;20.84;75.49
33913;BME280;20200;52.084;5.224;2022-08-01T09:24:03;101805.0;;;20.96;75.36
33913;BME280;20200;52.084;5.224;2022-08-01T09:25:52;101803.0;;;21.18;77.61
33913;BME280;20200;52.084;5.224;2022-08-01T09:27:39;101806.0;;;21.19;74.8
33913;BME280;20200;52.084;5.224;2022-08-01T09:29:28;101808.0;;;21.24;75.72
33913;BME280;20200;52.084;5.224;2022-08-01T09:31:18;101814.0;;;21.04;72.55
33913;BME280;20200;52.084;5.224;2022-08-01T09:34:51;101815.0;;;21.13;72.19
33913;BME280;20200;52.084;5.224;2022-08-01T09:36:54;101816.0;;;21.22;73.52
33913;BME280;20200;52.084;5.224;2022-08-01T09:38:41;101821.0;;;21.11;72.03
33913;BME280;20200;52.084;5.224;2022-08-01T09:40:44;101822.0;;;21.4;74.19
33913;BME280;20200;52.084;5.224;2022-08-01T09:42:30;101818.0;;;21.63;71.92
33913;BME280;20200;52.084;5.224;2022-08-01T09:44:18;101820.0;;;21.44;69.38
33913;BME280;20200;52.084;5.224;2022-08-01T09:46:05;101817.0;;;21.47;68.05
33913;BME280;20200;52.084;5.224;2022-08-01T09:47:55;101817.0;;;21.61;69.94
33913;BME280;20200;52.084;5.224;2022-08-01T09:51:33;101817.0;;;21.81;71.33
33913;BME280;20200;52.084;5.224;2022-08-01T09:53:20;101818.0;;;21.99;73.05
33913;BME280;20200;52.084;5.224;2022-08-01T09:55:09;101820.0;;;21.9;70.78
33913;BME280;20200;52.084;5.224;2022-08-01T09:57:08;101823.0;;;21.79;66.83
33913;BME280;20200;52.084;5.224;2022-08-01T09:58:57;101819.0;;;22.12;69.11
33913;BME280;20200;52.084;5.224;2022-08-01T10:00:43;101812.0;;;21.91;65.83
33913;BME280;20200;52.084;5.224;2022-08-01T10:02:45;101816.0;;;21.71;65.45
33913;BME280;20200;52.084;5.224;2022-08-01T10:04:33;101819.0;;;22.0;66.85
33913;BME280;20200;52.084;5.224;2022-08-01T10:08:07;101819.0;;;22.06;67.08
33913;BME280;20200;52.084;5.224;2022-08-01T10:09:53;101815.0;;;22.13;66.97
33913;BME280;20200;52.084;5.224;2022-08-01T10:11:41;101820.0;;;22.2;67.69
33913;BME280;20200;52.084;5.224;2022-08-01T10:13:30;101822.0;;;22.25;64.22
33913;BME280;20200;52.084;5.224;2022-08-01T10:15:16;101828.0;;;21.86;63.79
33913;BME280;20200;52.084;5.224;2022-08-01T10:17:07;101830.0;;;21.92;63.32
33913;BME280;20200;52.084;5.224;2022-08-01T10:20:43;101830.0;;;22.14;63.35
33913;BME280;20200;52.084;5.224;2022-08-01T10:22:31;101825.0;;;22.1;62.65
33913;BME280;20200;52.084;5.224;2022-08-01T10:24:19;101836.0;;;21.87;64.3
33913;BME280;20200;52.084;5.224;2022-08-01T10:26:07;101833.0;;;22.0;63.09
33913;BME280;20200;52.084;5.224;2022-08-01T10:27:56;101830.0;;;22.07;62.05
33913;BME280;20200;52.084;5.224;2022-08-01T10:29:49;101826.0;;;22.02;58.96
33913;BME280;20200;52.084;5.224;2022-08-01T10:33:26;101828.0;;;22.15;59.73
33913;BME280;20200;52.084;5.224;2022-08-01T10:35:17;101824.0;;;22.03;60.46
33913;BME280;20200;52.084;5.224;2022-08-01T10:37:05;101824.0;;;22.0;60.37
33913;BME280;20200;52.084;5.224;2022-08-01T10:40:41;101824.0;;;22.34;61.93
33913;BME280;20200;52.084;5.224;2022-08-01T10:42:29;101822.0;;;22.6;61.3
33913;BME280;20200;52.084;5.224;2022-08-01T10:46:03;101821.0;;;22.66;60.92
33913;BME280;20200;52.084;5.224;2022-08-01T10:47:56;101820.0;;;22.77;59.22
33913;BME280;20200;52.084;5.224;2022-08-01T10:49:48;101826.0;;;22.84;58.42
33913;BME280;20200;52.084;5.224;2022-08-01T10:51:40;101824.0;;;22.8;56.8
33913;BME280;20200;52.084;5.224;2022-08-01T10:53:27;101825.0;;;22.76;58.21
33913;BME280;20200;52.084;5.224;2022-08-01T10:55:14;101819.0;;;23.06;58.76
33913;BME280;20200;52.084;5.224;2022-08-01T10:57:00;101824.0;;;23.3;58.78
33913;BME280;20200;52.084;5.224;2022-08-01T11:00:34;101822.0;;;23.47;59.21
33913;BME280;20200;52.084;5.224;2022-08-01T11:02:26;101822.0;;;23.44;57.53
33913;BME280;20200;52.084;5.224;2022-08-01T11:04:14;101828.0;;;23.34;56.58
33913;BME280;20200;52.084;5.224;2022-08-01T11:06:03;101823.0;;;23.54;59.94
33913;BME280;20200;52.084;5.224;2022-08-01T11:07:52;101819.0;;;23.48;54.61
33913;BME280;20200;52.084;5.224;2022-08-01T11:09:41;101823.0;;;23.3;53.62